Time;durP1;ratioP1;P1;durP2;ratioP2;P2;SDS_P1;SDS_P2;PMS_P1;PMS_P2;Temp;Humidity;BMP_temperature;BMP_pressure;BME280_temperature;BME280_humidity;BME280_pressure;Samples;Min_cycle;Max_cycle;Signal;HPM_P1;HPM_P2
2022/01/21 00:00:27;;;;;;;21.85;14.65;;;11.10;96.40;;;;;;4992677;28;20015;-67
2022/01/21 00:02:53;;;;;;;26.48;13.85;;;11.00;96.50;;;;;;4991065;28;20502;-68
2022/01/21 00:05:21;;;;;;;23.23;14.70;;;11.00;96.70;;;;;;4992550;28;20027;-68
2022/01/21 00:07:47;;;;;;;27.38;14.80;;;10.90;96.80;;;;;;4995298;28;20022;-67
2022/01/21 00:10:13;;;;;;;25.75;15.23;;;10.90;96.80;;;;;;4995910;28;20033;-68
2022/01/21 00:12:39;;;;;;;24.42;16.20;;;11.00;96.90;;;;;;4994637;28;20026;-67
2022/01/21 00:15:07;;;;;;;22.50;15.73;;;11.00;96.90;;;;;;4995910;28;20468;-68
2022/01/21 00:17:33;;;;;;;27.17;16.98;;;10.90;96.90;;;;;;4995838;28;20085;-68
2022/01/21 00:30:56;;;;;;;;;;;11.00;97.10;;;;;;4995989;28;20108;-68
2022/01/21 00:33:22;;;;;;;24.85;16.92;;;10.90;97.60;;;;;;4995282;28;20362;-68
2022/01/21 00:35:47;;;;;;;22.58;15.98;;;10.90;97.30;;;;;;4995469;28;20420;-67
2022/01/21 00:38:14;;;;;;;24.77;15.77;;;10.90;97.20;;;;;;4995376;28;20128;-68
2022/01/21 00:40:41;;;;;;;25.63;16.52;;;10.90;97.30;;;;;;4995294;28;20030;-67
2022/01/21 00:43:15;;;;;;;23.35;16.70;;;10.90;97.30;;;;;;4995479;28;20027;-67
2022/01/21 00:45:41;;;;;;;24.73;17.00;;;10.90;97.30;;;;;;4995224;28;20018;-68
2022/01/21 00:48:07;;;;;;;22.23;16.02;;;10.90;97.40;;;;;;4995161;28;20364;-68
2022/01/21 00:50:33;;;;;;;23.73;16.48;;;10.90;97.50;;;;;;4995219;28;20104;-68
2022/01/21 00:52:59;;;;;;;23.20;16.45;;;10.90;97.50;;;;;;4995211;28;20113;-67
2022/01/21 00:55:25;;;;;;;22.75;15.82;;;10.80;97.60;;;;;;4995037;28;20110;-68
2022/01/21 00:57:50;;;;;;;22.85;15.57;;;10.80;97.70;;;;;;4994902;28;20034;-67
2022/01/21 01:00:16;;;;;;;22.92;16.60;;;10.80;97.70;;;;;;4995218;28;20076;-67
2022/01/21 01:02:43;;;;;;;25.20;17.15;;;10.80;97.80;;;;;;4994927;28;20030;-67
2022/01/21 01:05:10;;;;;;;22.35;16.73;;;10.70;97.70;;;;;;4995469;28;20018;-67
2022/01/21 01:07:35;;;;;;;22.63;17.48;;;10.70;97.80;;;;;;4994791;28;20027;-68
2022/01/21 01:10:04;;;;;;;24.75;17.52;;;10.70;97.90;;;;;;4995173;28;20077;-67
2022/01/21 01:20:27;;;;;;;;;;;10.50;98.30;;;;;;4995227;28;20032;-68
2022/01/21 01:22:58;;;;;;;21.40;16.20;;;10.50;98.50;;;;;;4994890;28;19905;-68
2022/01/21 01:28:08;;;;;;;24.38;17.13;;;10.50;98.30;;;;;;4994713;28;20041;-68
2022/01/21 01:30:36;;;;;;;23.08;16.75;;;10.50;98.30;;;;;;4994717;28;20018;-68
2022/01/21 01:33:06;;;;;;;22.92;17.00;;;10.50;98.40;;;;;;4994655;28;20033;-70
2022/01/21 01:35:33;;;;;;;25.02;16.55;;;10.50;98.40;;;;;;4994626;28;20037;-68
2022/01/21 01:40:46;;;;;;;22.25;16.45;;;10.50;98.50;;;;;;4994663;28;20038;-68
2022/01/21 01:50:56;;;;;;;19.55;14.48;;;10.30;98.60;;;;;;4994246;28;20078;-68
2022/01/21 01:53:31;;;;;;;19.55;14.07;;;10.20;98.70;;;;;;4992884;28;20030;-68
2022/01/21 01:55:58;;;;;;;21.95;14.68;;;10.20;98.70;;;;;;4994183;28;20026;-67
2022/01/21 01:58:24;;;;;;;19.27;14.38;;;10.20;98.90;;;;;;4993824;28;20026;-69
2022/01/21 02:00:50;;;;;;;21.63;14.63;;;10.20;98.90;;;;;;4994105;28;20030;-72
2022/01/21 02:03:16;;;;;;;21.40;14.95;;;10.30;99.10;;;;;;4994012;28;20022;-70
2022/01/21 02:05:43;;;;;;;18.92;13.40;;;10.30;99.00;;;;;;4993905;28;20026;-68
2022/01/21 02:08:12;;;;;;;18.67;13.07;;;10.30;98.90;;;;;;4993734;28;20026;-73
2022/01/21 02:10:39;;;;;;;18.00;13.52;;;10.40;99.10;;;;;;4994185;28;20027;-71
2022/01/21 02:13:18;;;;;;;19.52;12.30;;;10.40;98.80;;;;;;4994033;28;20022;-69
2022/01/21 02:15:55;;;;;;;18.98;13.38;;;10.40;98.90;;;;;;4993786;28;20042;-71
2022/01/21 02:24:31;;;;;;;17.60;11.45;;;10.40;98.80;;;;;;4996757;28;19912;-69
2022/01/21 02:27:00;;;;;;;19.00;12.35;;;10.40;98.90;;;;;;4974364;28;20030;-68
2022/01/21 02:29:31;;;;;;;18.58;12.35;;;10.50;98.90;;;;;;4973738;28;20091;-68
2022/01/21 02:31:59;;;;;;;18.45;11.40;;;10.50;99.10;;;;;;4974194;28;20499;-72
2022/01/21 02:34:25;;;;;;;17.88;11.90;;;10.50;99.00;;;;;;4974341;28;20354;-72
2022/01/21 02:36:52;;;;;;;18.27;11.48;;;10.50;99.10;;;;;;4974040;28;20057;-71
2022/01/21 02:39:17;;;;;;;19.63;11.82;;;10.50;98.90;;;;;;4973927;28;20038;-69
2022/01/21 02:41:43;;;;;;;19.95;12.63;;;10.50;99.10;;;;;;4973987;28;20027;-69
2022/01/21 02:44:14;;;;;;;18.75;11.50;;;10.50;99.20;;;;;;4974267;28;20106;-69
2022/01/21 02:46:41;;;;;;;18.35;11.93;;;10.50;99.10;;;;;;4974113;28;20063;-70
2022/01/21 02:49:08;;;;;;;20.33;11.90;;;10.50;99.10;;;;;;4973675;28;20042;-68
2022/01/21 02:51:35;;;;;;;16.88;11.70;;;10.50;99.20;;;;;;4973725;28;20035;-70
2022/01/21 02:54:05;;;;;;;15.95;11.50;;;10.50;99.20;;;;;;4973870;28;20041;-73
2022/01/21 02:56:36;;;;;;;17.73;12.63;;;10.50;99.30;;;;;;4973879;28;20045;-70
2022/01/21 02:59:05;;;;;;;18.85;12.10;;;10.50;99.20;;;;;;4973860;28;20054;-67
2022/01/21 03:01:35;;;;;;;16.83;11.90;;;10.50;99.30;;;;;;4972582;28;20057;-70
2022/01/21 03:04:02;;;;;;;18.73;12.35;;;10.50;99.30;;;;;;4973947;28;20022;-72
2022/01/21 03:06:28;;;;;;;18.73;11.95;;;10.50;99.30;;;;;;4973975;28;20038;-69
2022/01/21 03:08:57;;;;;;;19.25;11.98;;;10.50;99.20;;;;;;4973841;28;20026;-69
2022/01/21 03:11:25;;;;;;;18.25;12.73;;;10.60;99.10;;;;;;4973678;28;20086;-69
2022/01/21 03:13:51;;;;;;;17.80;11.55;;;10.50;99.20;;;;;;4973809;28;20471;-72
2022/01/21 03:16:17;;;;;;;19.75;11.40;;;10.50;99.20;;;;;;4973811;28;20389;-71
2022/01/21 03:18:44;;;;;;;17.42;11.10;;;10.50;99.70;;;;;;4973554;28;20023;-71
2022/01/21 03:21:15;;;;;;;18.45;10.80;;;10.50;99.20;;;;;;4974034;28;20062;-75
2022/01/21 03:23:46;;;;;;;15.20;10.93;;;10.50;99.40;;;;;;4973887;28;20380;-68
2022/01/21 03:26:20;;;;;;;18.92;11.48;;;10.40;99.60;;;;;;4973903;28;20027;-69
2022/01/21 03:28:48;;;;;;;17.15;11.18;;;10.40;99.50;;;;;;4987487;28;20097;-68
2022/01/21 03:31:14;;;;;;;17.50;10.63;;;10.40;99.70;;;;;;4973602;28;20103;-68
2022/01/21 03:33:40;;;;;;;14.80;11.30;;;10.40;99.80;;;;;;4973719;28;20033;-70
2022/01/21 03:36:08;;;;;;;15.82;11.02;;;10.40;99.90;;;;;;4973693;28;20087;-70
2022/01/21 03:38:35;;;;;;;17.55;12.25;;;10.30;99.90;;;;;;4973392;28;20082;-68
2022/01/21 03:41:02;;;;;;;21.90;11.93;;;10.30;99.80;;;;;;4973470;28;20039;-69
2022/01/21 03:43:28;;;;;;;18.67;12.52;;;10.20;99.90;;;;;;4977348;28;20456;-68
2022/01/21 03:45:54;;;;;;;18.15;12.50;;;10.20;99.90;;;;;;4975924;28;20058;-68
2022/01/21 03:48:21;;;;;;;26.15;13.27;;;10.20;99.90;;;;;;4977191;28;20027;-68
2022/01/21 03:50:47;;;;;;;19.90;14.05;;;10.30;99.90;;;;;;4977238;28;20054;-68
2022/01/21 03:53:13;;;;;;;19.73;14.18;;;10.20;99.90;;;;;;4977347;28;20037;-68
2022/01/21 03:55:39;;;;;;;22.02;14.60;;;10.20;99.90;;;;;;4977298;28;20035;-69
2022/01/21 03:58:06;;;;;;;19.80;13.73;;;10.30;99.90;;;;;;4976977;28;20058;-71
2022/01/21 04:00:39;;;;;;;21.95;14.07;;;10.20;99.90;;;;;;4975879;28;20384;-70
2022/01/21 04:03:05;;;;;;;13.07;9.65;;;10.20;99.90;;;;;;4977206;28;20077;-69
2022/01/21 04:05:31;;;;;;;18.50;12.48;;;10.20;99.90;;;;;;4977018;28;20023;-70
2022/01/21 04:07:57;;;;;;;19.83;12.80;;;10.20;99.90;;;;;;4976854;28;20052;-68
2022/01/21 04:10:23;;;;;;;18.20;11.93;;;10.20;99.90;;;;;;4976958;28;20031;-69
2022/01/21 04:12:49;;;;;;;15.27;11.00;;;10.30;99.90;;;;;;4977006;28;20026;-69
2022/01/21 04:15:15;;;;;;;14.75;9.73;;;10.30;99.90;;;;;;4977115;28;20027;-71
2022/01/21 04:17:41;;;;;;;15.43;9.63;;;10.40;99.90;;;;;;4976627;28;20366;-72
2022/01/21 04:20:09;;;;;;;16.70;9.82;;;10.30;99.90;;;;;;4976791;28;20118;-69
2022/01/21 04:22:35;;;;;;;13.95;9.25;;;10.30;99.90;;;;;;4976793;28;20119;-67
2022/01/21 04:25:01;;;;;;;16.02;9.13;;;10.30;99.90;;;;;;4976459;28;20031;-67
2022/01/21 04:27:27;;;;;;;16.35;9.38;;;10.30;99.90;;;;;;4976335;28;20054;-67
2022/01/21 04:29:53;;;;;;;14.63;8.88;;;10.40;99.90;;;;;;4974921;28;20496;-68
2022/01/21 04:32:19;;;;;;;11.52;8.43;;;10.40;99.90;;;;;;4976386;28;20025;-69
2022/01/21 04:34:44;;;;;;;13.07;8.82;;;10.30;99.90;;;;;;4976539;28;20372;-69
2022/01/21 04:37:12;;;;;;;15.55;9.43;;;10.30;99.90;;;;;;4976414;28;20043;-67
2022/01/21 04:39:47;;;;;;;15.15;9.52;;;10.30;99.90;;;;;;4976308;28;20122;-68
2022/01/21 04:47:31;;;;;;;18.42;10.07;;;10.40;99.60;;;;;;4976504;28;20042;-67
2022/01/21 04:49:57;;;;;;;15.18;9.77;;;10.40;99.70;;;;;;4975767;28;20051;-69
2022/01/21 04:52:23;;;;;;;15.20;10.23;;;10.40;99.70;;;;;;4976147;28;20034;-68
2022/01/21 04:54:49;;;;;;;15.80;10.65;;;10.40;99.60;;;;;;4975050;28;20031;-68
2022/01/21 04:57:16;;;;;;;15.35;10.43;;;10.40;99.20;;;;;;4975843;28;20384;-68
2022/01/21 04:59:43;;;;;;;15.25;10.52;;;10.30;99.30;;;;;;4975851;28;20031;-69
2022/01/21 05:02:10;;;;;;;19.33;13.35;;;10.30;99.40;;;;;;4976096;28;20030;-68
2022/01/21 05:04:36;;;;;;;17.85;11.43;;;10.30;99.50;;;;;;4976269;28;20023;-67
2022/01/21 05:07:05;;;;;;;16.83;10.43;;;10.30;99.50;;;;;;4976371;28;20030;-68
2022/01/21 05:09:31;;;;;;;15.00;9.68;;;10.30;99.30;;;;;;4976307;28;20026;-67
2022/01/21 05:11:59;;;;;;;14.77;8.98;;;10.30;99.10;;;;;;4975934;28;20039;-67
2022/01/21 05:14:40;;;;;;;12.63;7.10;;;10.30;99.20;;;;;;4974475;28;20085;-68
2022/01/21 05:17:07;;;;;;;13.20;7.20;;;10.30;99.10;;;;;;4974317;28;20062;-68
2022/01/21 05:19:33;;;;;;;13.52;7.47;;;10.30;99.70;;;;;;4975332;28;20023;-70
2022/01/21 05:21:59;;;;;;;14.02;9.00;;;10.30;99.50;;;;;;4973964;28;20447;-69
2022/01/21 05:24:24;;;;;;;12.80;6.95;;;10.20;99.60;;;;;;4975441;28;20361;-69
2022/01/21 05:26:58;;;;;;;10.35;6.07;;;10.10;99.80;;;;;;4975377;28;20042;-69
2022/01/21 05:29:26;;;;;;;8.40;4.60;;;10.00;99.60;;;;;;4975349;28;20464;-68
2022/01/21 05:31:52;;;;;;;11.55;6.25;;;10.00;99.90;;;;;;4975142;28;20049;-69
2022/01/21 05:34:18;;;;;;;9.93;6.13;;;9.90;99.90;;;;;;4975260;28;20472;-68
2022/01/21 05:36:46;;;;;;;11.15;6.43;;;9.80;99.90;;;;;;4975030;28;20038;-67
2022/01/21 05:39:13;;;;;;;12.88;6.95;;;9.80;99.90;;;;;;4975150;28;20510;-68
2022/01/21 05:41:39;;;;;;;11.57;5.50;;;9.80;99.90;;;;;;4975019;28;20034;-69
2022/01/21 05:44:16;;;;;;;9.38;5.47;;;9.80;99.90;;;;;;4974901;28;20098;-68
2022/01/21 05:49:07;;;;;;;9.13;5.75;;;9.80;99.90;;;;;;4975055;28;20112;-67
2022/01/21 05:51:33;;;;;;;9.50;5.80;;;9.70;99.90;;;;;;4974728;28;20027;-67
2022/01/21 05:53:58;;;;;;;12.82;6.32;;;9.60;99.90;;;;;;4974732;28;20472;-71
2022/01/21 05:56:25;;;;;;;12.00;6.32;;;9.60;99.90;;;;;;4974886;28;20035;-69
2022/01/21 05:58:52;;;;;;;10.25;6.68;;;9.50;99.90;;;;;;4974513;28;20038;-70
2022/01/21 06:01:18;;;;;;;12.10;6.22;;;9.50;99.90;;;;;;4974614;28;20034;-68
2022/01/21 06:03:44;;;;;;;14.27;6.35;;;9.40;99.90;;;;;;4974172;28;20387;-68
2022/01/21 06:06:10;;;;;;;13.88;6.45;;;9.40;99.90;;;;;;4974522;28;20082;-68
2022/01/21 06:08:39;;;;;;;13.05;6.60;;;9.40;99.90;;;;;;4974307;28;20094;-69
2022/01/21 06:11:05;;;;;;;15.48;6.93;;;9.30;99.90;;;;;;4974430;28;20034;-68
2022/01/21 06:13:31;;;;;;;12.80;6.60;;;9.30;99.90;;;;;;4973150;28;20472;-68
2022/01/21 06:15:59;;;;;;;11.60;6.85;;;9.40;99.90;;;;;;4974115;28;20057;-69
2022/01/21 06:18:25;;;;;;;13.20;7.35;;;9.30;99.90;;;;;;4974188;28;20030;-67
2022/01/21 06:20:51;;;;;;;10.77;7.20;;;9.30;99.90;;;;;;4974359;28;20039;-68
2022/01/21 06:23:16;;;;;;;14.52;7.45;;;9.30;99.90;;;;;;4972958;28;20507;-70
2022/01/21 06:25:42;;;;;;;14.23;8.25;;;9.30;99.90;;;;;;4974599;28;20026;-69
2022/01/21 06:28:08;;;;;;;13.30;7.57;;;9.30;99.90;;;;;;4972874;28;20042;-69
2022/01/21 06:30:34;;;;;;;16.02;8.52;;;9.40;99.90;;;;;;4989068;28;20035;-68
2022/01/21 06:33:00;;;;;;;11.93;7.78;;;9.40;99.90;;;;;;4974119;28;20511;-68
2022/01/21 06:35:26;;;;;;;14.32;8.05;;;9.40;99.90;;;;;;4972563;28;20027;-67
2022/01/21 06:37:51;;;;;;;14.27;8.20;;;9.50;99.90;;;;;;4973873;28;20080;-68
2022/01/21 06:40:20;;;;;;;14.68;9.40;;;9.50;99.90;;;;;;4974100;28;20023;-72
2022/01/21 06:42:50;;;;;;;12.90;8.07;;;9.50;99.90;;;;;;4973887;28;20042;-68
2022/01/21 06:45:17;;;;;;;13.45;9.00;;;9.40;99.90;;;;;;4988678;28;20037;-69
2022/01/21 06:47:43;;;;;;;15.43;9.43;;;9.50;99.90;;;;;;4973795;28;20027;-69
2022/01/21 06:50:09;;;;;;;15.93;9.18;;;9.50;99.90;;;;;;4973626;28;20409;-70
2022/01/21 06:52:35;;;;;;;15.18;9.30;;;9.60;99.90;;;;;;4985284;28;20023;-68
2022/01/21 06:55:02;;;;;;;15.38;9.27;;;9.50;99.90;;;;;;4992954;28;20440;-69
2022/01/21 06:57:30;;;;;;;24.42;10.38;;;9.60;99.90;;;;;;4991995;28;20045;-70
2022/01/21 06:59:56;;;;;;;15.55;9.93;;;9.50;99.90;;;;;;4993222;28;20081;-65
2022/01/21 07:02:23;;;;;;;17.33;10.85;;;9.50;99.90;;;;;;4993647;28;20026;-70
2022/01/21 07:04:50;;;;;;;19.40;11.55;;;9.50;99.90;;;;;;4993570;28;20084;-66
2022/01/21 07:07:16;;;;;;;19.05;12.07;;;9.50;99.90;;;;;;4987104;28;20084;-65
2022/01/21 07:09:42;;;;;;;20.88;12.35;;;9.50;99.90;;;;;;4993143;28;20468;-66
2022/01/21 07:12:09;;;;;;;24.77;12.70;;;9.50;99.90;;;;;;4992939;28;20110;-65
2022/01/21 07:14:35;;;;;;;17.92;12.10;;;9.50;99.90;;;;;;4992962;28;20027;-66
2022/01/21 07:17:01;;;;;;;20.10;13.15;;;9.60;99.90;;;;;;4979768;28;20049;-66
2022/01/21 07:19:27;;;;;;;20.40;13.45;;;9.60;99.90;;;;;;4995413;28;20446;-66
2022/01/21 07:21:52;;;;;;;21.63;13.50;;;9.70;99.90;;;;;;4983697;28;20178;-65
2022/01/21 07:24:19;;;;;;;19.10;12.88;;;9.70;99.90;;;;;;4978706;28;20068;-66
2022/01/21 07:26:44;;;;;;;22.13;13.77;;;9.70;99.90;;;;;;4988937;28;20399;-66
2022/01/21 07:29:10;;;;;;;19.23;13.40;;;9.70;99.90;;;;;;4985901;28;20029;-66
2022/01/21 07:31:37;;;;;;;20.65;13.73;;;9.80;99.90;;;;;;4993823;28;20052;-66
2022/01/21 07:34:06;;;;;;;21.58;13.38;;;9.90;99.90;;;;;;4995743;28;20027;-69
2022/01/21 07:36:33;;;;;;;19.65;12.32;;;9.90;99.90;;;;;;4995262;28;20042;-64
2022/01/21 07:38:59;;;;;;;18.50;13.48;;;9.90;99.90;;;;;;4996455;28;20081;-66
2022/01/21 07:41:25;;;;;;;24.65;14.23;;;9.90;99.90;;;;;;4996433;28;20460;-65
2022/01/21 07:43:52;;;;;;;19.55;13.10;;;9.90;99.90;;;;;;4995320;28;20034;-67
2022/01/21 07:46:18;;;;;;;21.50;13.75;;;9.80;99.90;;;;;;4996520;28;20029;-67
2022/01/21 07:48:44;;;;;;;23.40;14.25;;;9.80;99.80;;;;;;4994964;28;20479;-66
2022/01/21 07:51:10;;;;;;;21.83;13.75;;;9.80;99.90;;;;;;4991945;28;20546;-66
2022/01/21 07:53:37;;;;;;;23.92;14.73;;;9.80;99.90;;;;;;4996716;28;20034;-67
2022/01/21 07:56:04;;;;;;;23.33;14.65;;;9.90;99.90;;;;;;4996147;28;20034;-66
2022/01/21 07:58:30;;;;;;;25.05;14.07;;;10.00;99.60;;;;;;4994855;28;20105;-65
2022/01/21 08:00:57;;;;;;;21.33;12.73;;;10.10;99.40;;;;;;4982889;28;20023;-67
2022/01/21 08:03:24;;;;;;;20.58;13.20;;;10.10;99.10;;;;;;4976998;28;20053;-66
2022/01/21 08:05:51;;;;;;;21.92;13.70;;;10.00;98.80;;;;;;4976637;28;20019;-67
2022/01/21 08:08:17;;;;;;;20.55;13.45;;;10.00;98.90;;;;;;4976776;28;20106;-67
2022/01/21 08:10:43;;;;;;;21.83;14.32;;;10.10;99.00;;;;;;4976778;28;20023;-65
2022/01/21 08:13:09;;;;;;;20.63;14.02;;;10.20;99.00;;;;;;4976689;28;20389;-69
2022/01/21 08:15:35;;;;;;;22.85;13.73;;;10.20;98.90;;;;;;4975298;28;20078;-66
2022/01/21 08:18:01;;;;;;;25.27;14.85;;;10.20;98.70;;;;;;4976577;28;20459;-66
2022/01/21 08:20:29;;;;;;;22.70;13.70;;;10.20;98.80;;;;;;4975235;28;20058;-68
2022/01/21 08:22:54;;;;;;;21.15;14.27;;;10.30;98.60;;;;;;4975293;28;20031;-66
2022/01/21 08:25:21;;;;;;;25.52;14.85;;;10.30;98.70;;;;;;4975216;28;20030;-67
2022/01/21 08:27:47;;;;;;;20.40;14.18;;;10.30;98.60;;;;;;4974297;28;20027;-66
2022/01/21 08:30:13;;;;;;;24.92;14.73;;;10.40;98.50;;;;;;4975325;28;20181;-66
2022/01/21 08:32:39;;;;;;;22.85;14.05;;;10.40;98.30;;;;;;4975194;28;20066;-66
2022/01/21 08:35:09;;;;;;;24.83;15.23;;;10.40;98.50;;;;;;4976058;28;20026;-66
2022/01/21 08:37:35;;;;;;;36.83;16.45;;;10.50;98.30;;;;;;4974631;28;20042;-67
2022/01/21 08:40:01;;;;;;;21.88;14.20;;;10.50;98.30;;;;;;4974855;28;20128;-65
2022/01/21 08:42:27;;;;;;;30.15;16.08;;;10.50;98.20;;;;;;4974351;28;20509;-66
2022/01/21 08:44:53;;;;;;;24.33;14.05;;;10.50;98.30;;;;;;4974695;28;20106;-66
2022/01/21 08:47:21;;;;;;;23.02;14.85;;;10.50;98.20;;;;;;4974376;28;20135;-66
2022/01/21 08:49:48;;;;;;;25.02;14.00;;;10.50;98.00;;;;;;4975594;28;20035;-66
2022/01/21 08:52:19;;;;;;;19.88;14.30;;;10.60;98.10;;;;;;4975430;28;20031;-66
2022/01/21 08:54:46;;;;;;;26.08;14.25;;;10.60;98.00;;;;;;4974209;28;20030;-66
2022/01/21 08:57:13;;;;;;;27.42;14.57;;;10.60;98.00;;;;;;4975538;28;20053;-65
2022/01/21 08:59:39;;;;;;;28.20;14.68;;;10.70;98.10;;;;;;4973958;28;20034;-65
2022/01/21 09:02:04;;;;;;;26.98;15.05;;;10.70;97.90;;;;;;4975417;28;20385;-66
2022/01/21 09:04:30;;;;;;;24.83;14.20;;;10.70;97.80;;;;;;4975421;28;20023;-67
2022/01/21 09:06:56;;;;;;;17.92;12.93;;;10.70;97.80;;;;;;4975502;28;20027;-70
2022/01/21 09:09:22;;;;;;;19.10;13.02;;;10.70;97.60;;;;;;4975318;28;20019;-68
2022/01/21 09:11:48;;;;;;;27.58;14.77;;;10.70;97.50;;;;;;4974961;28;20023;-66
2022/01/21 09:14:13;;;;;;;27.88;14.10;;;10.70;97.60;;;;;;4975351;28;20038;-67
2022/01/21 09:16:42;;;;;;;22.02;13.65;;;10.80;97.60;;;;;;4975397;28;20090;-69
2022/01/21 09:19:08;;;;;;;23.45;13.57;;;10.80;97.50;;;;;;4975230;28;20081;-68
2022/01/21 09:21:37;;;;;;;21.30;12.77;;;10.80;97.40;;;;;;4975129;28;20117;-72
2022/01/21 09:24:04;;;;;;;23.45;13.43;;;10.90;97.40;;;;;;4989879;28;20037;-66
2022/01/21 09:26:30;;;;;;;23.33;13.25;;;11.00;97.30;;;;;;4975232;28;20358;-72
2022/01/21 09:28:58;;;;;;;24.10;14.38;;;11.00;97.20;;;;;;4973450;28;20543;-68
2022/01/21 09:31:25;;;;;;;21.40;11.38;;;11.00;97.10;;;;;;4974911;28;20098;-68
2022/01/21 09:33:51;;;;;;;24.88;13.77;;;11.10;97.00;;;;;;4974700;28;20094;-65
2022/01/21 09:36:18;;;;;;;20.90;11.95;;;11.20;96.90;;;;;;4974868;28;20031;-66
2022/01/21 09:38:45;;;;;;;22.17;13.25;;;11.30;96.90;;;;;;4974156;28;20027;-70
2022/01/21 09:41:11;;;;;;;30.25;13.20;;;11.30;96.60;;;;;;4974537;28;20387;-66
2022/01/21 09:43:38;;;;;;;24.45;13.15;;;11.20;96.40;;;;;;4974471;28;20102;-69
2022/01/21 09:46:07;;;;;;;23.63;12.90;;;11.30;96.50;;;;;;4974307;28;20030;-69
2022/01/21 09:48:48;;;;;;;22.48;11.52;;;11.40;96.50;;;;;;4974168;28;20026;-69
2022/01/21 09:51:15;;;;;;;22.48;12.50;;;11.40;96.10;;;;;;4974411;28;20423;-71
2022/01/21 09:53:41;;;;;;;22.10;12.60;;;11.40;96.20;;;;;;4972931;28;20027;-67
2022/01/21 09:56:08;;;;;;;21.88;13.57;;;11.50;95.90;;;;;;4974552;28;20031;-67
2022/01/21 09:58:34;;;;;;;21.08;13.15;;;11.60;95.80;;;;;;4974246;28;20492;-65
2022/01/21 10:01:07;;;;;;;24.35;13.25;;;11.70;95.80;;;;;;4974465;28;20027;-68
2022/01/21 10:03:34;;;;;;;20.08;13.10;;;11.70;95.60;;;;;;4974437;28;20472;-68
2022/01/21 10:06:03;;;;;;;18.52;13.38;;;11.70;95.60;;;;;;4989205;28;20041;-66
2022/01/21 10:08:29;;;;;;;18.23;12.18;;;11.80;95.50;;;;;;4974161;28;20026;-66
2022/01/21 10:10:54;;;;;;;20.10;11.52;;;11.80;95.20;;;;;;4972578;28;20396;-64
2022/01/21 10:13:21;;;;;;;19.02;11.10;;;11.80;95.00;;;;;;4973640;28;20023;-66
2022/01/21 10:15:48;;;;;;;17.45;10.98;;;11.90;95.10;;;;;;4973906;28;20034;-69
2022/01/21 10:18:16;;;;;;;17.05;10.55;;;11.90;95.10;;;;;;4972460;28;20477;-71
2022/01/21 10:20:58;;;;;;;17.75;10.27;;;11.90;94.80;;;;;;4973954;28;20102;-67
2022/01/21 10:23:25;;;;;;;14.20;9.88;;;11.90;94.90;;;;;;4972820;28;20034;-69
2022/01/21 10:26:19;;;;;;;18.02;9.45;;;12.00;94.70;;;;;;4973756;28;20027;-72
2022/01/21 10:28:53;;;;;;;17.23;8.80;;;12.10;94.70;;;;;;4974480;28;20488;-65
2022/01/21 10:31:19;;;;;;;14.35;8.32;;;12.20;94.30;;;;;;4973629;28;20464;-67
2022/01/21 10:33:46;;;;;;;17.75;8.50;;;12.30;93.80;;;;;;4972330;28;20388;-66
2022/01/21 10:36:34;;;;;;;15.13;8.68;;;12.30;93.40;;;;;;4973364;28;20038;-66
2022/01/21 10:39:14;;;;;;;17.65;10.30;;;12.30;92.90;;;;;;4972014;28;20121;-66
2022/01/21 10:41:43;;;;;;;18.63;9.07;;;12.30;93.00;;;;;;4973819;28;20109;-66
2022/01/21 10:44:12;;;;;;;13.90;8.32;;;12.40;92.80;;;;;;4973614;28;20034;-70
2022/01/21 10:46:43;;;;;;;15.30;7.22;;;12.60;92.20;;;;;;4973460;28;20034;-71
2022/01/21 10:49:13;;;;;;;14.70;8.13;;;12.70;91.90;;;;;;4973191;28;20492;-67
2022/01/21 10:51:50;;;;;;;16.40;8.30;;;12.80;92.00;;;;;;4973291;28;20031;-70
2022/01/21 10:54:18;;;;;;;13.40;8.07;;;12.80;91.70;;;;;;4973532;28;20035;-70
2022/01/21 10:57:07;;;;;;;13.00;8.13;;;12.80;91.50;;;;;;4973014;28;20039;-66
2022/01/21 10:59:46;;;;;;;14.30;8.20;;;12.80;91.40;;;;;;4973129;28;20094;-66
2022/01/21 11:02:13;;;;;;;17.17;8.07;;;12.90;91.30;;;;;;4973168;28;20054;-66
2022/01/21 11:04:45;;;;;;;16.48;8.98;;;12.90;90.90;;;;;;4973422;28;20019;-71
2022/01/21 11:07:16;;;;;;;16.02;9.70;;;12.90;90.80;;;;;;4973415;28;20023;-66
2022/01/21 11:09:42;;;;;;;12.98;8.77;;;13.00;90.60;;;;;;4973090;28;20041;-67
2022/01/21 11:12:16;;;;;;;14.77;9.63;;;13.10;90.50;;;;;;4973590;28;20022;-68
2022/01/21 11:15:00;;;;;;;16.67;9.20;;;13.10;90.60;;;;;;4971633;28;20034;-67
2022/01/21 11:17:26;;;;;;;15.60;9.68;;;13.10;90.50;;;;;;4971559;28;20030;-66
2022/01/21 11:20:02;;;;;;;16.23;10.77;;;13.00;90.50;;;;;;4972712;28;20465;-70
2022/01/21 11:22:29;;;;;;;18.35;10.68;;;13.10;90.70;;;;;;4972538;28;20119;-66
2022/01/21 11:24:59;;;;;;;17.02;11.20;;;13.10;90.60;;;;;;4972688;28;20050;-66
2022/01/21 11:27:25;;;;;;;18.17;11.52;;;13.10;90.70;;;;;;4972984;28;20488;-66
2022/01/21 11:29:52;;;;;;;17.92;9.63;;;13.20;90.70;;;;;;4972960;28;20034;-66
2022/01/21 11:32:19;;;;;;;15.13;9.68;;;13.30;90.30;;;;;;4971482;28;20437;-65
2022/01/21 11:34:45;;;;;;;18.08;10.15;;;13.30;90.00;;;;;;4971670;28;20026;-67
2022/01/21 11:37:12;;;;;;;18.77;10.05;;;13.30;89.70;;;;;;4972591;28;20043;-67
2022/01/21 11:39:37;;;;;;;16.00;10.80;;;13.40;90.00;;;;;;4972856;28;20122;-68
2022/01/21 11:42:06;;;;;;;16.20;9.35;;;13.50;90.00;;;;;;4972725;28;20023;-66
2022/01/21 11:44:36;;;;;;;13.77;7.88;;;13.60;89.50;;;;;;4972810;28;20025;-66
2022/01/21 11:49:32;;;;;;;14.70;8.20;;;13.70;87.80;;;;;;4999840;23;20065;-72
2022/01/21 11:52:21;;;;;;;14.65;6.97;;;13.70;87.40;;;;;;4993343;28;20026;-73
2022/01/21 11:54:50;;;;;;;15.88;7.18;;;13.80;85.40;;;;;;4992595;28;20041;-75
2022/01/21 11:57:29;;;;;;;10.85;6.00;;;13.80;83.80;;;;;;4993588;28;20073;-74
2022/01/21 12:00:03;;;;;;;9.85;6.10;;;13.80;83.60;;;;;;4992751;28;20025;-72
2022/01/21 12:02:32;;;;;;;13.35;6.22;;;13.80;82.70;;;;;;4993672;28;20030;-72
2022/01/21 12:05:01;;;;;;;12.43;5.15;;;13.80;81.90;;;;;;4996986;28;20050;-76
2022/01/21 12:07:44;;;;;;;12.85;6.22;;;13.90;80.30;;;;;;4997748;28;20026;-74
2022/01/21 12:10:21;;;;;;;32.80;6.15;;;13.90;80.00;;;;;;4995927;28;20491;-71
2022/01/21 12:13:05;;;;;;;8.75;4.93;;;14.00;79.70;;;;;;4994275;28;20053;-71
2022/01/21 12:18:39;;;;;;;13.75;5.82;;;14.10;78.50;;;;;;4995725;28;21780;-71
2022/01/21 12:21:25;;;;;;;13.10;6.25;;;14.10;78.10;;;;;;4995871;28;20014;-73
2022/01/21 12:23:52;;;;;;;10.55;4.45;;;14.20;76.50;;;;;;4995806;28;20066;-72
2022/01/21 12:26:19;;;;;;;9.32;4.22;;;14.30;76.30;;;;;;4995612;28;20081;-72
2022/01/21 12:29:06;;;;;;;8.63;3.45;;;14.20;75.40;;;;;;4995484;28;20106;-75
2022/01/21 12:31:39;;;;;;;9.23;4.55;;;14.20;74.10;;;;;;5006544;28;20041;-70
2022/01/21 12:34:12;;;;;;;8.98;3.97;;;14.20;73.90;;;;;;4995215;28;20030;-70
2022/01/21 12:36:48;;;;;;;7.90;4.32;;;14.20;73.70;;;;;;4995290;28;20054;-73
2022/01/21 12:39:36;;;;;;;11.88;5.25;;;14.30;74.10;;;;;;4994937;28;20083;-71
2022/01/21 12:42:35;;;;;;;8.73;4.70;;;14.20;73.70;;;;;;4993809;28;20491;-73
2022/01/21 12:45:06;;;;;;;11.43;4.75;;;14.30;73.60;;;;;;4993603;28;20505;-72
2022/01/21 12:47:39;;;;;;;16.92;5.32;;;14.40;73.30;;;;;;4995353;28;20106;-75
2022/01/21 12:50:13;;;;;;;8.38;4.97;;;14.40;73.50;;;;;;4995014;28;20105;-76
2022/01/21 12:52:51;;;;;;;9.63;5.18;;;14.40;74.00;;;;;;4994961;28;20031;-76
2022/01/21 12:58:17;;;;;;;13.20;5.50;;;14.40;74.40;;;;;;4995157;28;20049;-71
2022/01/21 13:00:44;;;;;;;10.40;6.55;;;14.40;73.80;;;;;;4995236;28;20487;-76
2022/01/21 13:03:37;;;;;;;12.18;6.78;;;14.40;73.90;;;;;;4994726;28;20034;-71
2022/01/21 13:06:03;;;;;;;11.50;5.50;;;14.30;73.80;;;;;;4994876;28;20337;-69
2022/01/21 13:08:44;;;;;;;10.85;5.47;;;14.20;73.50;;;;;;4994782;28;20030;-70
2022/01/21 13:11:22;;;;;;;10.10;5.63;;;14.10;74.40;;;;;;4994840;28;20045;-72
2022/01/21 13:13:58;;;;;;;8.93;5.72;;;14.10;73.80;;;;;;4994923;28;20145;-73
2022/01/21 13:16:29;;;;;;;15.50;6.00;;;14.10;73.20;;;;;;4994841;28;20026;-71
2022/01/21 13:19:00;;;;;;;10.60;5.68;;;14.00;73.60;;;;;;4994905;28;20161;-74
2022/01/21 13:21:27;;;;;;;8.27;5.07;;;14.10;73.30;;;;;;4993576;28;20034;-72
2022/01/21 13:24:00;;;;;;;11.88;5.45;;;14.10;72.70;;;;;;4994951;28;20025;-72
2022/01/21 13:26:37;;;;;;;8.80;4.95;;;14.20;72.60;;;;;;4993220;28;20417;-72
2022/01/21 13:29:04;;;;;;;8.85;4.68;;;14.10;72.60;;;;;;4994183;28;20030;-75
2022/01/21 13:31:43;;;;;;;8.55;4.72;;;14.10;72.10;;;;;;4994534;28;20026;-75
2022/01/21 13:34:20;;;;;;;10.15;5.63;;;14.00;71.50;;;;;;4994307;28;20123;-70